Time;durP1;ratioP1;P1;durP2;ratioP2;P2;SDS_P1;SDS_P2;PMS_P1;PMS_P2;Temp;Humidity;BMP_temperature;BMP_pressure;BME280_temperature;BME280_humidity;BME280_pressure;Samples;Min_cycle;Max_cycle;Signal;HPM_P1;HPM_P2
2021/09/20 00:01:01;;;;;;;2.88;1.50;;;13.70;91.90;;;;;;5083315;28;20088;-67
2021/09/20 00:03:27;;;;;;;3.75;1.70;;;13.70;92.00;;;;;;5085136;28;20028;-68
2021/09/20 00:05:53;;;;;;;3.58;1.50;;;13.70;92.10;;;;;;5086604;28;20027;-68
2021/09/20 00:08:19;;;;;;;2.85;1.90;;;13.70;92.00;;;;;;5084403;28;20032;-68
2021/09/20 00:10:44;;;;;;;2.80;1.55;;;13.70;92.10;;;;;;5083446;28;20024;-68
2021/09/20 00:13:10;;;;;;;2.22;1.40;;;13.70;92.00;;;;;;5085873;28;20035;-68
2021/09/20 00:15:36;;;;;;;3.20;1.48;;;13.70;91.90;;;;;;5088176;28;20111;-65
2021/09/20 00:18:01;;;;;;;5.93;1.75;;;13.70;91.90;;;;;;5090494;28;20406;-66
2021/09/20 00:20:27;;;;;;;4.00;1.60;;;13.70;91.90;;;;;;5090142;28;20481;-66
2021/09/20 00:22:53;;;;;;;2.65;1.60;;;13.60;92.00;;;;;;5090083;28;20505;-66
2021/09/20 00:25:19;;;;;;;3.65;1.70;;;13.60;91.90;;;;;;5090405;28;20024;-66
2021/09/20 00:27:44;;;;;;;2.20;1.58;;;13.60;92.00;;;;;;5088514;28;20024;-66
2021/09/20 00:30:11;;;;;;;2.60;1.40;;;13.60;91.90;;;;;;5089843;28;20028;-68
2021/09/20 00:32:37;;;;;;;3.08;1.58;;;13.70;92.00;;;;;;5089080;28;20529;-67
2021/09/20 00:35:05;;;;;;;2.35;1.35;;;13.70;92.10;;;;;;5089080;28;20036;-67
2021/09/20 00:37:31;;;;;;;5.35;1.58;;;13.60;92.10;;;;;;5089670;28;20107;-67
2021/09/20 00:39:57;;;;;;;5.78;2.25;;;13.70;92.20;;;;;;5088399;28;20111;-66
2021/09/20 00:42:23;;;;;;;3.33;1.90;;;13.70;92.20;;;;;;5089329;28;20036;-68
2021/09/20 00:44:48;;;;;;;2.28;1.52;;;13.60;92.10;;;;;;5089836;28;20016;-67
2021/09/20 00:47:14;;;;;;;3.63;1.67;;;13.60;92.10;;;;;;5088987;28;20027;-66
2021/09/20 00:49:40;;;;;;;2.83;1.50;;;13.60;92.10;;;;;;5089546;28;20120;-66
2021/09/20 00:52:06;;;;;;;3.00;2.10;;;13.60;92.10;;;;;;5088447;28;20036;-69
2021/09/20 00:54:32;;;;;;;3.05;1.70;;;13.60;91.90;;;;;;5088135;28;20405;-67
2021/09/20 00:56:58;;;;;;;3.13;1.70;;;13.60;92.00;;;;;;5088537;28;20028;-66
2021/09/20 00:59:24;;;;;;;2.47;1.70;;;13.60;91.90;;;;;;5089865;28;20030;-65
2021/09/20 01:01:51;;;;;;;5.30;1.58;;;13.60;92.10;;;;;;5089758;28;20032;-66
2021/09/20 01:04:17;;;;;;;2.47;1.70;;;13.60;92.10;;;;;;5089495;28;20450;-67
2021/09/20 01:06:42;;;;;;;5.00;1.60;;;13.60;91.90;;;;;;5089196;28;20107;-66
2021/09/20 01:09:08;;;;;;;4.38;2.13;;;13.50;91.90;;;;;;5089324;28;20031;-67
2021/09/20 01:11:34;;;;;;;1.70;1.33;;;13.60;92.30;;;;;;5089062;28;20031;-66
2021/09/20 01:14:00;;;;;;;2.70;1.45;;;13.60;92.10;;;;;;5087485;28;20036;-68
2021/09/20 01:16:26;;;;;;;4.63;1.48;;;13.60;92.20;;;;;;5089118;28;20085;-66
2021/09/20 01:18:51;;;;;;;4.65;1.80;;;13.60;92.10;;;;;;5088637;28;20034;-69
2021/09/20 01:21:17;;;;;;;2.15;1.60;;;13.50;92.00;;;;;;5089709;28;20036;-67
2021/09/20 01:23:43;;;;;;;5.07;1.80;;;13.60;92.10;;;;;;5086634;28;20062;-67
2021/09/20 01:26:11;;;;;;;3.72;1.65;;;13.60;92.10;;;;;;5088189;28;20424;-66
2021/09/20 01:28:37;;;;;;;2.88;1.90;;;13.60;92.20;;;;;;5086956;28;20032;-67
2021/09/20 01:31:03;;;;;;;3.10;1.60;;;13.60;92.20;;;;;;5090131;28;20359;-67
2021/09/20 01:33:29;;;;;;;2.85;1.55;;;13.60;92.10;;;;;;5086558;28;20487;-68
2021/09/20 01:35:54;;;;;;;3.22;1.58;;;13.50;92.20;;;;;;5085871;28;20053;-66
2021/09/20 01:38:20;;;;;;;2.40;1.40;;;13.50;92.20;;;;;;5088335;28;20031;-67
2021/09/20 01:40:46;;;;;;;2.20;1.33;;;13.50;92.10;;;;;;5089177;28;20027;-67
2021/09/20 01:43:13;;;;;;;2.53;1.40;;;13.50;92.10;;;;;;5085728;28;20038;-66
2021/09/20 01:45:39;;;;;;;3.00;1.77;;;13.60;92.20;;;;;;5088082;28;20034;-66
2021/09/20 01:48:05;;;;;;;2.03;1.20;;;13.50;92.10;;;;;;5088518;28;20020;-65
2021/09/20 01:50:31;;;;;;;1.90;1.55;;;13.50;91.90;;;;;;5087608;28;20382;-67
2021/09/20 01:52:57;;;;;;;2.42;1.80;;;13.50;91.90;;;;;;5088566;28;20050;-66
2021/09/20 01:55:23;;;;;;;2.72;1.73;;;13.50;91.90;;;;;;5087271;28;20028;-66
2021/09/20 01:57:49;;;;;;;2.88;1.58;;;13.50;92.20;;;;;;5089997;28;20024;-66
2021/09/20 02:00:16;;;;;;;3.20;1.70;;;13.50;92.10;;;;;;5088608;28;20085;-67
2021/09/20 02:02:42;;;;;;;3.65;1.40;;;13.40;92.10;;;;;;5085922;28;20028;-66
2021/09/20 02:05:09;;;;;;;3.17;1.95;;;13.50;92.20;;;;;;5088349;28;20132;-66
2021/09/20 02:07:35;;;;;;;4.53;2.03;;;13.50;92.20;;;;;;5086927;28;20020;-66
2021/09/20 02:10:03;;;;;;;3.97;1.60;;;13.40;92.20;;;;;;5088948;28;20551;-66
2021/09/20 02:12:28;;;;;;;2.03;1.42;;;13.40;91.90;;;;;;5086807;28;20078;-67
2021/09/20 02:14:54;;;;;;;3.35;1.52;;;13.40;92.10;;;;;;5088686;28;20478;-66
2021/09/20 02:17:19;;;;;;;2.75;1.45;;;13.40;92.00;;;;;;5088482;28;20138;-66
2021/09/20 02:19:45;;;;;;;2.70;1.70;;;13.40;92.10;;;;;;5088797;28;20028;-66
2021/09/20 02:22:11;;;;;;;2.35;1.38;;;13.40;92.00;;;;;;5085997;28;20047;-66
2021/09/20 02:24:37;;;;;;;2.30;1.50;;;13.40;92.00;;;;;;5086265;28;20024;-67
2021/09/20 02:27:02;;;;;;;4.22;1.63;;;13.40;91.90;;;;;;5087428;28;20059;-66
2021/09/20 02:29:28;;;;;;;2.92;1.60;;;13.40;91.90;;;;;;5088950;28;20454;-66
2021/09/20 02:31:54;;;;;;;2.60;1.73;;;13.40;91.90;;;;;;5088272;28;20031;-65
2021/09/20 02:34:20;;;;;;;2.47;1.70;;;13.30;91.90;;;;;;5085733;28;20036;-66
2021/09/20 02:36:46;;;;;;;3.40;1.30;;;13.30;91.90;;;;;;5086453;28;20059;-66
2021/09/20 02:39:12;;;;;;;3.95;1.55;;;13.40;91.90;;;;;;5086663;28;20059;-67
2021/09/20 02:41:37;;;;;;;3.60;1.63;;;13.30;92.00;;;;;;5086007;28;20064;-67
2021/09/20 02:44:03;;;;;;;2.10;1.50;;;13.30;92.00;;;;;;5088519;28;20032;-66
2021/09/20 02:46:29;;;;;;;2.45;1.70;;;13.40;92.00;;;;;;5087365;28;20085;-66
2021/09/20 02:48:55;;;;;;;3.75;1.48;;;13.40;92.10;;;;;;5087220;28;20035;-66
2021/09/20 02:51:21;;;;;;;3.03;1.55;;;13.40;92.10;;;;;;5086641;28;20032;-66
2021/09/20 02:53:47;;;;;;;2.55;1.65;;;13.30;92.10;;;;;;5085756;28;20044;-66
2021/09/20 02:56:13;;;;;;;3.25;1.63;;;13.30;92.00;;;;;;5087086;28;20020;-65
2021/09/20 02:58:38;;;;;;;2.40;1.70;;;13.30;92.10;;;;;;5087309;28;20073;-66
2021/09/20 03:01:04;;;;;;;2.65;1.40;;;13.40;92.20;;;;;;5086257;28;20044;-66
2021/09/20 03:03:30;;;;;;;2.67;1.65;;;13.30;92.10;;;;;;5086119;28;20032;-67
2021/09/20 03:05:55;;;;;;;2.50;1.50;;;13.30;92.20;;;;;;5085072;28;20058;-67
2021/09/20 03:08:21;;;;;;;3.13;1.77;;;13.30;92.20;;;;;;5087062;28;20060;-67
2021/09/20 03:10:47;;;;;;;2.42;1.60;;;13.30;92.20;;;;;;5089829;28;20433;-66
2021/09/20 03:13:12;;;;;;;2.78;1.80;;;13.30;92.20;;;;;;5085689;28;20039;-67
2021/09/20 03:15:38;;;;;;;2.58;1.67;;;13.30;92.30;;;;;;5086308;28;20071;-66
2021/09/20 03:18:04;;;;;;;1.95;1.40;;;13.30;92.30;;;;;;5086454;28;20084;-67
2021/09/20 03:20:29;;;;;;;3.75;1.80;;;13.30;92.30;;;;;;5086591;28;20032;-66
2021/09/20 03:22:55;;;;;;;3.72;1.80;;;13.30;92.30;;;;;;5087481;28;20067;-67
2021/09/20 03:25:21;;;;;;;3.55;2.10;;;13.30;92.30;;;;;;5085638;28;20048;-67
2021/09/20 03:27:48;;;;;;;3.60;1.60;;;13.20;92.30;;;;;;5085202;28;20024;-67
2021/09/20 03:30:16;;;;;;;3.08;1.73;;;13.30;92.30;;;;;;5086148;28;20109;-66
2021/09/20 03:32:42;;;;;;;3.35;2.05;;;13.20;92.30;;;;;;5087100;28;20027;-66
2021/09/20 03:35:09;;;;;;;3.28;1.70;;;13.20;92.30;;;;;;5086185;28;20028;-67
2021/09/20 03:37:35;;;;;;;4.78;1.90;;;13.20;92.40;;;;;;5086186;28;20423;-67
2021/09/20 03:40:01;;;;;;;4.22;1.85;;;13.20;92.40;;;;;;5086876;28;20119;-67
2021/09/20 03:42:27;;;;;;;5.35;1.90;;;13.20;92.60;;;;;;5086738;28;20103;-67
2021/09/20 03:44:52;;;;;;;3.92;1.88;;;13.10;92.50;;;;;;5085248;28;20103;-66
2021/09/20 03:47:18;;;;;;;5.43;1.90;;;13.10;92.50;;;;;;5088631;28;20486;-66
2021/09/20 03:49:44;;;;;;;3.88;1.92;;;13.10;92.50;;;;;;5087041;28;20020;-66
2021/09/20 03:52:10;;;;;;;4.45;2.13;;;13.10;92.50;;;;;;5092578;28;20031;-67
2021/09/20 03:54:35;;;;;;;5.95;1.77;;;13.10;92.50;;;;;;5090716;28;20025;-66
2021/09/20 03:57:01;;;;;;;3.65;1.98;;;13.10;92.60;;;;;;5091702;28;20016;-66
2021/09/20 03:59:26;;;;;;;4.43;2.10;;;13.10;92.60;;;;;;5087701;28;20075;-66
2021/09/20 04:01:52;;;;;;;3.13;2.00;;;13.20;92.60;;;;;;5085406;28;20513;-67
2021/09/20 04:04:18;;;;;;;4.22;1.98;;;13.10;92.60;;;;;;5091959;28;20486;-67
2021/09/20 04:06:44;;;;;;;4.18;2.00;;;13.10;92.70;;;;;;5091664;28;20480;-66
2021/09/20 04:09:10;;;;;;;5.50;2.33;;;13.10;92.80;;;;;;5090577;28;20035;-66
2021/09/20 04:11:40;;;;;;;4.00;2.35;;;13.10;92.90;;;;;;5091568;28;20032;-67
2021/09/20 04:14:09;;;;;;;4.63;2.40;;;13.00;93.00;;;;;;5088096;28;20024;-66
2021/09/20 04:16:35;;;;;;;4.70;2.60;;;13.10;93.00;;;;;;5089495;28;20028;-66
2021/09/20 04:19:01;;;;;;;4.35;2.45;;;13.10;93.00;;;;;;5091933;28;20024;-66
2021/09/20 04:21:27;;;;;;;3.33;2.20;;;13.10;93.10;;;;;;5090191;28;20028;-68
2021/09/20 04:23:53;;;;;;;6.25;2.50;;;13.10;93.00;;;;;;5091089;28;20020;-66
2021/09/20 04:26:19;;;;;;;3.60;2.30;;;13.00;93.00;;;;;;5089238;28;20103;-68
2021/09/20 04:28:44;;;;;;;3.45;2.20;;;13.10;93.00;;;;;;5091665;28;20058;-65
2021/09/20 04:31:10;;;;;;;3.83;2.13;;;13.10;93.00;;;;;;5091976;28;20392;-66
2021/09/20 04:33:36;;;;;;;4.68;2.42;;;13.10;93.00;;;;;;5089768;28;20032;-66
2021/09/20 04:36:02;;;;;;;4.53;2.42;;;13.10;93.00;;;;;;5091696;28;20052;-66
2021/09/20 04:38:27;;;;;;;3.63;2.50;;;13.10;93.00;;;;;;5090522;28;20040;-65
2021/09/20 04:40:53;;;;;;;3.38;2.40;;;13.10;93.00;;;;;;5088043;28;20066;-66
2021/09/20 04:43:19;;;;;;;4.05;2.42;;;13.00;93.00;;;;;;5089357;28;20060;-66
2021/09/20 04:45:45;;;;;;;5.47;2.70;;;13.10;93.00;;;;;;5087330;28;20024;-65
2021/09/20 04:48:11;;;;;;;4.82;2.60;;;13.00;92.90;;;;;;5086630;28;20567;-66
2021/09/20 04:50:45;;;;;;;2.70;1.90;;;13.00;92.80;;;;;;5089817;28;20107;-66
2021/09/20 04:53:12;;;;;;;3.67;2.55;;;13.00;92.80;;;;;;5090188;28;20112;-67
2021/09/20 04:55:39;;;;;;;3.33;2.40;;;13.00;92.80;;;;;;5091568;28;20032;-66
2021/09/20 04:58:06;;;;;;;5.05;2.97;;;13.00;92.70;;;;;;5090618;28;20046;-66
2021/09/20 05:00:33;;;;;;;6.22;2.47;;;13.00;92.60;;;;;;5088578;28;20028;-66
2021/09/20 05:02:59;;;;;;;3.72;2.40;;;12.90;92.60;;;;;;5084777;28;20032;-66
2021/09/20 05:05:25;;;;;;;4.57;2.85;;;12.90;92.70;;;;;;5085811;28;20408;-70
2021/09/20 05:07:50;;;;;;;4.05;2.80;;;13.00;92.70;;;;;;5088564;28;20723;-67
2021/09/20 05:10:16;;;;;;;5.32;2.58;;;12.90;92.60;;;;;;5089561;28;20016;-68
2021/09/20 05:12:42;;;;;;;4.03;2.47;;;12.90;92.60;;;;;;5087335;28;20020;-67
2021/09/20 05:15:10;;;;;;;5.28;2.67;;;12.90;92.60;;;;;;5089476;28;20032;-68
2021/09/20 05:17:37;;;;;;;4.18;2.72;;;12.90;92.50;;;;;;5086805;28;20032;-67
2021/09/20 05:20:05;;;;;;;4.28;2.47;;;12.90;92.40;;;;;;5089235;28;20115;-68
2021/09/20 05:22:30;;;;;;;3.95;2.00;;;12.90;92.40;;;;;;5088223;28;20040;-68
2021/09/20 05:24:56;;;;;;;3.55;2.70;;;12.90;92.30;;;;;;5088798;28;20484;-68
2021/09/20 05:27:22;;;;;;;4.43;2.53;;;12.90;92.20;;;;;;5087064;28;20032;-68
2021/09/20 05:29:48;;;;;;;6.03;3.03;;;12.90;92.30;;;;;;5088972;28;20441;-67
2021/09/20 05:32:13;;;;;;;3.80;2.55;;;12.90;92.30;;;;;;5090364;28;20027;-67
2021/09/20 05:34:39;;;;;;;6.13;2.67;;;12.90;92.30;;;;;;5087110;28;20104;-69
2021/09/20 05:37:05;;;;;;;4.90;2.83;;;12.90;92.30;;;;;;5089509;28;20060;-68
2021/09/20 05:39:33;;;;;;;4.47;2.65;;;12.90;92.10;;;;;;5089638;28;20042;-68
2021/09/20 05:41:59;;;;;;;3.75;2.53;;;12.90;92.10;;;;;;5088293;28;20036;-68
2021/09/20 05:44:25;;;;;;;4.53;2.63;;;12.90;92.00;;;;;;5092100;28;20024;-68
2021/09/20 05:46:51;;;;;;;4.93;2.88;;;12.90;92.00;;;;;;5090150;28;20043;-67
2021/09/20 05:49:16;;;;;;;3.22;2.05;;;12.90;92.00;;;;;;5091772;28;20023;-67
2021/09/20 05:51:42;;;;;;;3.72;2.35;;;12.90;91.90;;;;;;5088590;28;20034;-68
2021/09/20 05:54:08;;;;;;;4.35;2.95;;;12.90;91.90;;;;;;5089292;28;20032;-67
2021/09/20 05:56:35;;;;;;;3.63;2.22;;;13.00;91.70;;;;;;5089812;28;20081;-66
2021/09/20 05:59:01;;;;;;;4.95;2.28;;;13.00;91.80;;;;;;5089619;28;20038;-67
2021/09/20 06:01:27;;;;;;;4.30;2.33;;;13.00;91.70;;;;;;5087350;28;20028;-68
2021/09/20 06:03:52;;;;;;;4.85;2.58;;;13.00;91.80;;;;;;5088343;28;20491;-67
2021/09/20 06:06:18;;;;;;;4.50;2.78;;;13.00;91.80;;;;;;5090215;28;20024;-68
2021/09/20 06:08:44;;;;;;;4.28;2.33;;;13.00;91.70;;;;;;5086658;28;20659;-68
2021/09/20 06:11:11;;;;;;;4.38;2.20;;;13.00;91.50;;;;;;5089833;28;21889;-68
2021/09/20 06:13:38;;;;;;;4.05;2.30;;;13.10;91.60;;;;;;5087626;28;20133;-67
2021/09/20 06:16:04;;;;;;;3.40;2.00;;;13.10;91.60;;;;;;5088314;28;20031;-68
2021/09/20 06:18:30;;;;;;;5.88;2.40;;;13.10;91.70;;;;;;5089309;28;20028;-68
2021/09/20 06:20:55;;;;;;;5.43;2.90;;;13.10;91.70;;;;;;5088941;28;20127;-68
2021/09/20 06:23:21;;;;;;;6.88;2.65;;;13.10;91.50;;;;;;5090603;28;20034;-67
2021/09/20 06:25:47;;;;;;;3.28;2.47;;;13.20;91.50;;;;;;5088159;28;20440;-67
2021/09/20 06:28:13;;;;;;;4.85;2.40;;;13.20;91.50;;;;;;5087215;28;20027;-73
2021/09/20 06:30:38;;;;;;;3.65;2.30;;;13.20;91.40;;;;;;5086830;28;20202;-68
2021/09/20 06:33:04;;;;;;;4.75;2.35;;;13.20;91.30;;;;;;5089443;28;20027;-68
2021/09/20 06:35:30;;;;;;;3.53;2.47;;;13.20;91.20;;;;;;5088395;28;20400;-68
2021/09/20 06:37:57;;;;;;;5.38;2.10;;;13.30;91.00;;;;;;5089052;28;20092;-68
2021/09/20 06:40:22;;;;;;;4.72;2.50;;;13.30;91.10;;;;;;5093126;28;20032;-68
2021/09/20 06:42:48;;;;;;;5.80;2.22;;;13.30;91.10;;;;;;5084517;28;20072;-68
2021/09/20 06:45:14;;;;;;;4.57;2.42;;;13.30;91.00;;;;;;5089930;28;20052;-68
2021/09/20 06:47:40;;;;;;;3.10;2.00;;;13.30;90.80;;;;;;5090095;28;20057;-68
2021/09/20 06:50:07;;;;;;;5.32;2.30;;;13.30;90.60;;;;;;5089361;28;20032;-67
2021/09/20 06:52:33;;;;;;;4.97;2.35;;;13.30;90.60;;;;;;5089012;28;20028;-69
2021/09/20 06:54:58;;;;;;;2.95;2.25;;;13.30;90.50;;;;;;5087837;28;20032;-68
2021/09/20 06:57:24;;;;;;;3.63;2.15;;;13.30;90.60;;;;;;5087891;28;20024;-68
2021/09/20 06:59:50;;;;;;;5.30;2.60;;;13.30;90.60;;;;;;5086656;28;20093;-67
2021/09/20 07:02:16;;;;;;;7.13;2.67;;;13.40;90.50;;;;;;5087570;28;20032;-69
2021/09/20 07:04:41;;;;;;;6.25;2.03;;;13.40;90.70;;;;;;5088345;28;20059;-68
2021/09/20 07:07:07;;;;;;;5.32;2.42;;;13.50;90.70;;;;;;5084181;28;20028;-68
2021/09/20 07:09:33;;;;;;;4.90;2.55;;;13.60;90.70;;;;;;5079422;28;20020;-68
2021/09/20 07:11:58;;;;;;;3.83;2.28;;;13.60;90.70;;;;;;5080175;28;20028;-68
2021/09/20 07:14:24;;;;;;;2.92;2.10;;;13.60;90.70;;;;;;5088219;28;20062;-67
2021/09/20 07:16:50;;;;;;;3.55;2.00;;;13.70;90.50;;;;;;5086647;28;20044;-68
2021/09/20 07:19:16;;;;;;;4.32;2.38;;;13.70;90.60;;;;;;5085382;28;20039;-68
2021/09/20 07:21:43;;;;;;;6.13;2.42;;;13.70;90.70;;;;;;5085868;28;20042;-68
2021/09/20 07:24:09;;;;;;;6.38;2.33;;;13.80;91.00;;;;;;5086928;28;20370;-68
2021/09/20 07:26:35;;;;;;;3.90;2.40;;;13.90;90.90;;;;;;5086133;28;20016;-67
2021/09/20 07:29:01;;;;;;;6.43;2.80;;;13.90;90.90;;;;;;5082582;28;20036;-67
2021/09/20 07:31:27;;;;;;;4.18;2.70;;;13.90;91.00;;;;;;5083900;28;20035;-68
2021/09/20 07:33:53;;;;;;;3.90;2.55;;;14.00;90.90;;;;;;5087140;28;20254;-68
2021/09/20 07:36:19;;;;;;;4.60;2.15;;;14.00;90.80;;;;;;5087037;28;20095;-67
2021/09/20 07:38:45;;;;;;;5.20;2.75;;;14.00;90.70;;;;;;5085404;28;20533;-66
2021/09/20 07:41:12;;;;;;;3.83;2.00;;;14.00;90.70;;;;;;5084887;28;20486;-67
2021/09/20 07:43:39;;;;;;;4.90;2.17;;;14.00;90.40;;;;;;5085610;28;20055;-67
2021/09/20 07:46:04;;;;;;;4.07;3.03;;;14.10;90.30;;;;;;5083317;28;20105;-68
2021/09/20 07:48:30;;;;;;;4.22;1.83;;;14.10;90.30;;;;;;5077870;28;20638;-68
2021/09/20 07:50:56;;;;;;;4.30;2.58;;;14.20;90.30;;;;;;5082889;28;20107;-68
2021/09/20 07:53:22;;;;;;;3.60;2.47;;;14.40;90.90;;;;;;5084070;28;20109;-67
2021/09/20 07:55:47;;;;;;;4.35;2.45;;;14.50;90.00;;;;;;5081914;28;20129;-68
2021/09/20 07:58:14;;;;;;;3.38;2.33;;;14.60;90.90;;;;;;5088273;28;20181;-68
2021/09/20 08:00:41;;;;;;;4.13;2.10;;;14.70;90.10;;;;;;5085072;28;20117;-68
2021/09/20 08:03:09;;;;;;;4.43;2.20;;;14.80;90.30;;;;;;5085161;28;20062;-68
2021/09/20 08:05:42;;;;;;;3.83;2.35;;;14.70;89.40;;;;;;5088934;28;20520;-67
2021/09/20 08:08:09;;;;;;;2.78;2.15;;;14.70;88.10;;;;;;5082748;28;20028;-67
2021/09/20 08:10:36;;;;;;;3.75;2.40;;;14.70;88.50;;;;;;5086349;28;20032;-68
2021/09/20 08:13:03;;;;;;;3.30;2.33;;;14.60;89.10;;;;;;5084412;28;20554;-67
2021/09/20 08:15:29;;;;;;;5.10;2.20;;;14.60;89.30;;;;;;5086083;28;20020;-68
2021/09/20 08:17:56;;;;;;;3.47;2.58;;;14.60;89.60;;;;;;5086423;28;20060;-66
2021/09/20 08:20:22;;;;;;;4.18;2.55;;;14.60;89.90;;;;;;5086655;28;20028;-68
2021/09/20 08:22:52;;;;;;;3.88;2.40;;;14.60;89.70;;;;;;5083968;28;20020;-68
2021/09/20 08:25:20;;;;;;;4.20;2.40;;;14.60;89.60;;;;;;5081500;28;20385;-67
2021/09/20 08:27:46;;;;;;;5.15;2.13;;;14.70;89.60;;;;;;5081312;28;20293;-67
2021/09/20 08:30:12;;;;;;;4.10;2.10;;;14.70;89.40;;;;;;5087638;28;20028;-68
2021/09/20 08:32:38;;;;;;;3.00;2.00;;;14.70;88.40;;;;;;5087477;28;20394;-67
2021/09/20 08:35:05;;;;;;;5.47;2.22;;;14.70;88.20;;;;;;5087325;28;20111;-68
2021/09/20 08:37:30;;;;;;;3.63;2.40;;;14.70;87.50;;;;;;5090576;28;20107;-68
2021/09/20 08:39:56;;;;;;;3.38;2.10;;;14.80;86.80;;;;;;5091127;28;20103;-70
2021/09/20 08:42:22;;;;;;;3.53;2.05;;;14.80;86.80;;;;;;5088434;28;20062;-68
2021/09/20 08:44:48;;;;;;;4.38;2.50;;;14.80;87.10;;;;;;5090456;28;20035;-67
2021/09/20 08:47:15;;;;;;;3.85;2.13;;;14.90;86.80;;;;;;5089011;28;20016;-67
2021/09/20 08:49:42;;;;;;;4.10;2.00;;;15.00;86.90;;;;;;5089235;28;20409;-68
2021/09/20 08:52:08;;;;;;;3.83;2.60;;;15.10;86.70;;;;;;5089776;28;20435;-68
2021/09/20 08:54:33;;;;;;;4.90;2.25;;;15.20;86.50;;;;;;5090361;28;20029;-68
2021/09/20 08:56:59;;;;;;;3.65;2.30;;;15.30;86.30;;;;;;5089948;28;20063;-68
2021/09/20 08:59:25;;;;;;;3.95;2.38;;;15.40;85.00;;;;;;5088902;28;20024;-68
2021/09/20 09:01:53;;;;;;;3.80;2.22;;;15.40;84.50;;;;;;5087784;28;20035;-68
2021/09/20 09:04:33;;;;;;;4.15;2.35;;;15.40;83.90;;;;;;5087549;28;20099;-67
2021/09/20 09:07:07;;;;;;;3.15;2.20;;;15.40;84.10;;;;;;5091555;28;20020;-67
2021/09/20 09:09:43;;;;;;;3.63;2.47;;;15.50;84.80;;;;;;5093103;28;20032;-67
2021/09/20 09:12:16;;;;;;;5.13;2.58;;;15.60;85.30;;;;;;5091023;28;20513;-67
2021/09/20 09:14:53;;;;;;;5.93;2.72;;;15.60;84.80;;;;;;5092489;28;20467;-67
2021/09/20 09:17:23;;;;;;;4.07;2.30;;;15.50;84.70;;;;;;5091756;28;20031;-67
2021/09/20 09:19:57;;;;;;;7.07;3.00;;;15.60;85.20;;;;;;5091807;28;20484;-67
2021/09/20 09:22:38;;;;;;;5.88;2.60;;;15.50;85.00;;;;;;5088927;28;20027;-67
2021/09/20 09:25:07;;;;;;;4.63;3.00;;;15.50;85.70;;;;;;5090593;28;20089;-67
2021/09/20 09:27:36;;;;;;;5.20;3.00;;;15.50;86.00;;;;;;5089746;28;20094;-67
2021/09/20 09:30:05;;;;;;;4.75;2.47;;;15.70;86.40;;;;;;5090412;28;20027;-67
2021/09/20 09:32:31;;;;;;;4.43;2.30;;;15.70;85.80;;;;;;5088920;28;20028;-67
2021/09/20 09:35:02;;;;;;;3.22;2.50;;;15.70;85.60;;;;;;5090004;28;20111;-67
2021/09/20 09:37:28;;;;;;;;;;;15.60;84.90;;;;;;5089976;28;20535;-67
2021/09/20 09:40:24;;;;;;;5.35;2.65;;;15.60;85.00;;;;;;5090220;28;19916;-67
2021/09/20 09:42:57;;;;;;;4.03;2.47;;;15.50;85.50;;;;;;5087342;28;20964;-67
2021/09/20 09:45:29;;;;;;;4.13;2.70;;;15.50;86.00;;;;;;5083668;28;20405;-67
2021/09/20 09:48:17;;;;;;;5.53;2.15;;;15.60;85.90;;;;;;5085674;28;20479;-67
2021/09/20 09:50:55;;;;;;;4.30;2.88;;;15.60;86.30;;;;;;5083132;28;20043;-67
2021/09/20 09:53:36;;;;;;;3.50;2.42;;;15.60;86.40;;;;;;5083511;28;20036;-67
2021/09/20 09:56:07;;;;;;;5.90;2.55;;;15.60;86.60;;;;;;5084863;28;20040;-67
2021/09/20 09:58:33;;;;;;;4.30;2.47;;;15.60;86.10;;;;;;5085474;28;20035;-67
2021/09/20 10:01:17;;;;;;;4.22;2.40;;;15.60;86.50;;;;;;5084334;28;20036;-67
2021/09/20 10:04:04;;;;;;;3.97;2.72;;;15.60;85.80;;;;;;5086308;28;20103;-67
2021/09/20 10:06:54;;;;;;;4.53;2.42;;;15.50;85.80;;;;;;5089461;28;20544;-67
2021/09/20 10:09:30;;;;;;;3.67;2.72;;;15.50;84.30;;;;;;5088480;28;20035;-67
2021/09/20 10:11:59;;;;;;;3.45;2.30;;;15.50;84.40;;;;;;5086895;28;20306;-67
2021/09/20 10:14:27;;;;;;;3.90;2.45;;;15.60;84.50;;;;;;5088636;28;20063;-67
2021/09/20 10:16:55;;;;;;;7.72;2.90;;;15.50;84.80;;;;;;5088561;28;20036;-70
2021/09/20 10:19:22;;;;;;;4.97;2.70;;;15.50;83.90;;;;;;5087975;28;20040;-67
2021/09/20 10:21:48;;;;;;;5.25;2.50;;;15.40;84.30;;;;;;5081554;28;20036;-67
2021/09/20 10:24:15;;;;;;;3.30;2.30;;;15.40;84.40;;;;;;5084617;28;20035;-67
2021/09/20 10:26:41;;;;;;;6.00;2.47;;;15.40;84.90;;;;;;5084854;28;20601;-67
2021/09/20 10:29:11;;;;;;;5.85;2.47;;;15.50;85.10;;;;;;5088991;28;20032;-67
2021/09/20 10:31:40;;;;;;;3.88;2.67;;;15.50;84.70;;;;;;5082347;28;20024;-67
2021/09/20 10:34:18;;;;;;;2.78;2.30;;;15.60;84.40;;;;;;5086246;28;20032;-67
2021/09/20 10:37:03;;;;;;;3.90;2.50;;;15.70;84.60;;;;;;5088328;28;20024;-67
2021/09/20 10:40:04;;;;;;;5.97;2.75;;;15.70;85.00;;;;;;5089959;28;20032;-67
2021/09/20 10:42:35;;;;;;;3.72;2.47;;;15.70;85.10;;;;;;5094324;28;20438;-67
2021/09/20 10:45:04;;;;;;;4.85;2.67;;;15.80;85.00;;;;;;5086828;28;20115;-67
2021/09/20 10:47:43;;;;;;;4.45;2.67;;;15.70;84.60;;;;;;5085143;28;20647;-67
2021/09/20 10:50:10;;;;;;;3.10;2.50;;;15.70;83.90;;;;;;5090132;28;20430;-67
2021/09/20 10:52:35;;;;;;;3.95;2.30;;;15.60;84.00;;;;;;5085211;28;20023;-67
2021/09/20 10:55:10;;;;;;;4.00;2.30;;;15.60;84.10;;;;;;5087767;28;20367;-67
2021/09/20 10:57:36;;;;;;;3.83;2.30;;;15.70;84.70;;;;;;5089940;28;20051;-67
2021/09/20 11:00:21;;;;;;;6.95;2.85;;;15.80;84.60;;;;;;5081292;28;20443;-67
2021/09/20 11:02:48;;;;;;;5.05;3.10;;;15.90;83.70;;;;;;5083272;28;20035;-67
2021/09/20 11:05:14;;;;;;;4.03;3.03;;;16.00;83.80;;;;;;5085164;28;20024;-67
2021/09/20 11:07:48;;;;;;;5.80;2.72;;;16.10;83.30;;;;;;5084667;28;20031;-67
2021/09/20 11:10:15;;;;;;;4.32;2.55;;;16.40;83.30;;;;;;5079090;28;20103;-67
2021/09/20 11:12:58;;;;;;;3.55;2.20;;;16.60;83.10;;;;;;5079545;28;20055;-67
2021/09/20 11:15:24;;;;;;;4.10;2.38;;;16.80;82.20;;;;;;5080569;28;20265;-67
2021/09/20 11:17:51;;;;;;;5.90;2.47;;;17.00;80.40;;;;;;5079384;28;20080;-65
2021/09/20 11:20:35;;;;;;;8.32;2.65;;;17.00;80.20;;;;;;5083085;28;20028;-66
2021/09/20 11:23:24;;;;;;;3.83;2.60;;;16.90;79.60;;;;;;5079780;28;20035;-65
2021/09/20 11:26:10;;;;;;;3.38;2.42;;;16.90;80.20;;;;;;5083360;28;20033;-65
2021/09/20 11:28:40;;;;;;;2.92;2.30;;;17.00;80.60;;;;;;5079614;28;20028;-66
2021/09/20 11:31:06;;;;;;;4.32;2.47;;;17.00;80.20;;;;;;5078929;28;20487;-66
2021/09/20 11:33:40;;;;;;;3.95;2.60;;;17.00;79.90;;;;;;5081775;28;20028;-66
2021/09/20 11:36:18;;;;;;;5.63;2.25;;;17.00;79.50;;;;;;5082330;28;20020;-65
2021/09/20 11:38:44;;;;;;;4.22;2.08;;;16.90;79.60;;;;;;5081163;28;20098;-65
2021/09/20 11:41:22;;;;;;;4.43;2.65;;;16.80;79.40;;;;;;5085722;28;20043;-66
2021/09/20 11:43:48;;;;;;;6.78;2.90;;;16.70;78.80;;;;;;5080237;28;20052;-65
2021/09/20 11:46:20;;;;;;;3.22;1.92;;;16.60;79.80;;;;;;5085139;28;20393;-66
2021/09/20 11:48:46;;;;;;;4.38;2.78;;;16.70;79.80;;;;;;5077569;28;20290;-66
2021/09/20 11:51:11;;;;;;;4.18;2.45;;;16.60;79.40;;;;;;5082679;28;20027;-66
2021/09/20 11:53:37;;;;;;;4.78;2.42;;;16.70;80.00;;;;;;5083220;28;20033;-66
2021/09/20 11:56:03;;;;;;;4.15;2.50;;;16.70;79.60;;;;;;5090506;28;20390;-66
2021/09/20 11:58:29;;;;;;;3.22;2.15;;;16.70;79.70;;;;;;5081659;28;20397;-66
2021/09/20 12:00:54;;;;;;;8.10;3.25;;;16.80;80.00;;;;;;5081965;28;20036;-66
2021/09/20 12:03:24;;;;;;;4.45;2.42;;;16.80;80.10;;;;;;5083874;28;20562;-66
2021/09/20 12:05:51;;;;;;;3.60;2.35;;;16.70;78.80;;;;;;5088945;28;20032;-66
2021/09/20 12:08:21;;;;;;;4.03;2.35;;;16.70;78.60;;;;;;5080758;28;20028;-66
2021/09/20 12:10:58;;;;;;;3.53;2.37;;;16.70;78.30;;;;;;5087435;28;20477;-66
2021/09/20 12:13:28;;;;;;;5.80;1.95;;;16.80;78.80;;;;;;5087974;28;20020;-66
2021/09/20 12:16:03;;;;;;;5.07;2.15;;;16.80;79.30;;;;;;5085727;28;20116;-66
2021/09/20 12:18:29;;;;;;;6.75;2.67;;;16.80;79.30;;;;;;5088161;28;20539;-65
2021/09/20 12:20:58;;;;;;;5.25;2.58;;;16.90;79.20;;;;;;5089724;28;20032;-65
2021/09/20 12:23:24;;;;;;;4.88;2.38;;;16.80;78.10;;;;;;5088229;28;20025;-65
2021/09/20 12:25:50;;;;;;;4.93;2.13;;;16.70;78.10;;;;;;5084472;28;20690;-66
2021/09/20 12:28:39;;;;;;;3.38;2.35;;;16.60;78.00;;;;;;5086056;28;20043;-66
2021/09/20 12:31:05;;;;;;;5.40;2.40;;;16.60;78.20;;;;;;5086036;28;20032;-65
2021/09/20 12:33:55;;;;;;;4.25;2.40;;;16.70;78.50;;;;;;5084965;28;20248;-66
2021/09/20 12:36:34;;;;;;;4.22;2.15;;;16.80;78.20;;;;;;5088736;28;20119;-67
2021/09/20 12:39:08;;;;;;;4.65;2.30;;;16.80;77.20;;;;;;5085875;28;20031;-68
2021/09/20 12:41:38;;;;;;;4.47;2.33;;;16.70;77.40;;;;;;5086435;28;20051;-66
2021/09/20 12:44:04;;;;;;;5.07;2.20;;;16.80;77.50;;;;;;5088818;28;20036;-66
2021/09/20 12:46:32;;;;;;;3.55;2.13;;;16.80;77.70;;;;;;5092571;28;20501;-66
2021/09/20 12:48:59;;;;;;;3.72;2.10;;;16.90;77.50;;;;;;5092437;28;20482;-66
2021/09/20 12:51:32;;;;;;;5.75;2.83;;;16.80;76.40;;;;;;5091531;28;20044;-66